Montevideo, MN (56265)

2:53 PM CDT op 28 mei 2015 (GMT -0500)
Near Chinhinta Park | | Change Station
CLOSE
Current Station
Persoonlijk weerstation
Location: Montevideo, MN
Geometrische hoogte: 1024 ft
Nabije weerstations

Hoogte 1024 ft 44.94 °N, 95.72 °W | Updated 2 seconds ago

Clear
Helder
81.5 °F
Voelt als 81 °F
N
6.0
Wind Variabel Wind van ZZO
Gusts 12.0 mijl/u

Vandaag
Hoog -- | Laag -- °F
--% Kans op neerslag
Gisteren
Hoog -- | Laag -- °F
Precip. -- inches
5:42 AM 8:58 PM
Wassende maan, 78% visible
Druk 29.93 inches
Zicht 10.0 mijlen
Wolken Helder
Warmteindex 81 °F
Dauwpunt 52 °F
Vochtigheid 36%
Neerslag 0.00 inches
Dikte sneeuw Niet beschikbaar.
UV 10 van de 12
Pollen 8.40 van de 12
Luchtkwaliteit Niet beschikbaar.
Flu Activity Sporadic
METAR KMVE 281934Z AUTO 22014G20KT 10SM CLR 28/11 A2993 RMK AO2

More Conditions Fewer Conditions

Druk 29.93 inches
Zicht 10.0 mijlen
Wolken Helder
Warmteindex 81 °F
Dauwpunt 52 °F
Vochtigheid 36%
Neerslag 0.00 inches
Dikte sneeuw Niet beschikbaar.
UV 10 van de 12
Pollen 8.40 van de 12
Luchtkwaliteit Niet beschikbaar.
Flu Activity Sporadic
METAR KMVE 281934Z AUTO 22014G20KT 10SM CLR 28/11 A2993 RMK AO2

More Conditions Fewer Conditions

10-Day Weather Forecast

Almanac

Astronomie

May. 28, 2015 Opkomst Ondergang
Werkelijke tijd
Burgerlijke schemering
Nautische schemering
Astronomische schemering
Maan
Golflengte van het zichtbare licht
Daglengte
Tomorrow will be .
, % of the Moon is Illuminated

Extremen vandaag

State Highs State Lows

Community

WunderPhotos

Upload Photos

1,825,044 foto’s ge-upload!

WunderBlogs® & News

Nearby

Luchtkwaliteit

  Luchtkwaliteit LK-index Verontreinigende stof
Not available.

Dikte sneeuw

Station Depth Geometrische hoogte

Aardbevingen

Stad Distance Mag. Time & Date
Minimum magnitude displayed is 2.5.

Watertemperatuur langs de kust

Plaats Temperatuur

Stations

Nabije weerstations

Locatie station Temp. Gevoelstemperatuur Dauwpunt Vochtigheid Wind Precip. Hoogte Geactualiseerd Type